map of LBG home
LBG - Airport
Location
City:  Paris, Īle-de-France, France
Name:Le Bourget
ICAO:LFPB
IATA:LBG

Details
Type:Airport (Aerodrome, Airfield)
Use:Public/Civil, International (customs port of entry)
Latitude:48°58'10"N (48.969444)
Longitude:2°26'29"E (2.441389)
Elevation:217 ft (66 m)
Variation:0.94°E (WMM2015v2 magnetic declination)
0.17° annual change
Runways:3
Longest:9843 × 148 ft (3000 × 45 m), paved

Time
Time Zone:UTC+1 (DST+2)
Local Time:

Weather
METAR:LFPB 041400Z AUTO 19012KT 160V220 9999 FEW035 OVC044 05/M02 Q1025 TEMPO 2000 -SN BKN004
TAF:LFPB 041100Z 0412/0512 18010KT 9999 BKN040
TEMPO 0414/0421 2000 -SN BKN004
BECMG 0415/0417 BKN010 PROB40
TEMPO 0503/0509 3000 BR BKN004

Related Locations
Nearby:
Farthest:CHT: 12070 mi / 19425 km
Waitangi [Tuuta], CIT, NZ

Find:

   beyond  
but within

Other Information
Maps:
NOTAMs:
Links:
Sources:

  
  • flag of France
  • flag of Īle-de-France
  • flag of Paris
  

Sectional Chart

Flight Planning
at skyvector.com

Satellite Image

Google Maps Satellite view

 

Copyright © 2004-2019 Karl L. Swartz. All rights reserved.
The Great Circle Mapper name and logo are trademarks of the Great Circle Mapper.
All other trademarks mentioned herein belong to their respective owners.
Please see credits for attibutions and further copyright information.

  Follow gcmap on Facebook Follow gcmap on Twitter GCmap on LinkedIn

hCard Microformat

Geo Microformat